createdAt,value
2018-12-16T00:00:44.144Z,23.43
2018-12-16T00:03:12.567Z,25.23
2018-12-16T00:05:41.198Z,24.43
2018-12-16T00:08:09.997Z,23.13
2018-12-16T00:10:38.668Z,24.07
2018-12-16T00:13:07.195Z,21.07
2018-12-16T00:15:35.778Z,24.90
2018-12-16T00:18:05.487Z,25.37
2018-12-16T00:20:33.892Z,22.07
2018-12-16T00:23:03.020Z,27.03
2018-12-16T00:25:31.739Z,19.63
2018-12-16T00:28:00.219Z,22.00
2018-12-16T00:30:28.682Z,22.47
2018-12-16T00:32:57.235Z,25.43
2018-12-16T00:35:26.200Z,22.07
2018-12-16T00:37:55.146Z,25.33
2018-12-16T00:40:24.308Z,21.40
2018-12-16T00:42:53.625Z,22.40
2018-12-16T00:45:22.310Z,23.83
2018-12-16T00:47:50.742Z,23.03
2018-12-16T00:50:19.157Z,24.73
2018-12-16T00:52:47.551Z,26.07
2018-12-16T00:55:16.835Z,23.90
2018-12-16T00:57:46.512Z,24.90
2018-12-16T01:00:16.068Z,21.93
2018-12-16T01:02:44.989Z,25.03
2018-12-16T01:05:14.158Z,25.50
2018-12-16T01:07:42.558Z,21.53
2018-12-16T01:10:11.769Z,24.23
2018-12-16T01:12:40.233Z,25.50
2018-12-16T01:15:09.125Z,23.10
2018-12-16T01:17:37.876Z,21.97
2018-12-16T01:20:07.762Z,21.90
2018-12-16T01:22:36.285Z,22.23
2018-12-16T01:25:05.300Z,24.30
2018-12-16T01:27:33.710Z,24.67
2018-12-16T01:30:02.869Z,24.33
2018-12-16T01:32:31.652Z,21.57
2018-12-16T01:35:00.115Z,24.07
2018-12-16T01:37:29.444Z,25.20
2018-12-16T01:39:58.714Z,25.27
2018-12-16T01:42:27.117Z,22.77
2018-12-16T01:44:55.541Z,24.57
2018-12-16T01:47:24.444Z,24.60
2018-12-16T01:49:53.273Z,21.43
2018-12-16T01:52:21.694Z,23.20
2018-12-16T01:54:50.353Z,22.90
2018-12-16T01:57:18.901Z,24.13
2018-12-16T01:59:47.388Z,23.67
2018-12-16T02:02:16.052Z,25.43
2018-12-16T02:04:44.564Z,25.13
2018-12-16T02:07:13.153Z,24.03
2018-12-16T02:09:41.886Z,27.13
2018-12-16T02:12:11.224Z,23.63
2018-12-16T02:14:39.923Z,22.80
2018-12-16T02:17:09.581Z,24.57
2018-12-16T02:19:37.994Z,23.40
2018-12-16T02:22:06.695Z,23.67
2018-12-16T02:24:35.845Z,24.17
2018-12-16T02:27:05.204Z,21.77
2018-12-16T02:29:34.247Z,22.97
2018-12-16T02:32:02.662Z,24.70
2018-12-16T02:34:31.450Z,23.57
2018-12-16T02:37:00.241Z,22.90
2018-12-16T02:39:28.870Z,23.60
2018-12-16T02:41:57.569Z,24.57
2018-12-16T02:44:26.021Z,24.87
2018-12-16T02:46:54.614Z,22.83
2018-12-16T02:49:23.070Z,23.33
2018-12-16T02:51:51.708Z,22.87
2018-12-16T02:54:20.741Z,21.90
2018-12-16T02:56:49.526Z,23.37
2018-12-16T02:59:18.089Z,22.77
2018-12-16T03:01:48.123Z,26.77
2018-12-16T03:04:17.372Z,25.07
2018-12-16T03:06:45.915Z,23.47
2018-12-16T03:09:14.891Z,24.57
2018-12-16T03:11:43.755Z,24.10
2018-12-16T03:14:12.324Z,24.43
2018-12-16T03:16:40.800Z,25.77
2018-12-16T03:19:09.573Z,23.33
2018-12-16T03:21:37.999Z,26.23
2018-12-16T03:24:06.633Z,25.00
2018-12-16T03:26:35.995Z,25.67
2018-12-16T03:29:04.909Z,24.77
2018-12-16T03:31:33.471Z,25.90
2018-12-16T03:34:02.721Z,21.13
2018-12-16T03:36:31.670Z,22.70
2018-12-16T03:39:00.172Z,23.57
2018-12-16T03:41:28.853Z,22.60
2018-12-16T03:43:57.384Z,23.13
2018-12-16T03:46:26.225Z,22.90
2018-12-16T03:48:54.825Z,23.27
2018-12-16T03:51:23.477Z,24.00
2018-12-16T03:53:52.643Z,22.73
2018-12-16T03:56:21.929Z,24.87
2018-12-16T03:59:01.766Z,24.63
2018-12-16T04:01:30.189Z,23.70
2018-12-16T04:03:58.792Z,20.80
2018-12-16T04:06:28.709Z,21.47
2018-12-16T04:08:57.375Z,23.23
2018-12-16T04:11:25.914Z,25.63
2018-12-16T04:13:54.589Z,28.57
2018-12-16T04:16:23.017Z,26.80
2018-12-16T04:18:51.668Z,23.47
2018-12-16T04:21:20.685Z,25.27
2018-12-16T04:23:49.194Z,27.77
2018-12-16T04:26:17.748Z,21.33
2018-12-16T04:28:46.361Z,21.70
2018-12-16T04:31:14.884Z,24.90
2018-12-16T04:33:44.284Z,22.93
2018-12-16T04:36:12.732Z,24.53
2018-12-16T04:38:41.863Z,25.97
2018-12-16T04:41:10.954Z,28.47
2018-12-16T04:43:39.512Z,22.93
2018-12-16T04:46:07.914Z,24.83
2018-12-16T04:48:37.026Z,26.67
2018-12-16T04:51:06.090Z,26.03
2018-12-16T04:53:36.884Z,24.80
2018-12-16T04:56:05.131Z,26.60
2018-12-16T04:58:33.695Z,25.10
2018-12-16T05:01:03.070Z,23.03
2018-12-16T05:03:31.484Z,25.47
2018-12-16T05:06:00.003Z,24.83
2018-12-16T05:08:28.970Z,26.13
2018-12-16T05:10:57.617Z,26.27
2018-12-16T05:13:26.311Z,24.13
2018-12-16T05:15:54.728Z,35.50
2018-12-16T05:18:23.879Z,27.23
2018-12-16T05:20:52.978Z,27.63
2018-12-16T05:23:22.242Z,28.80
2018-12-16T05:25:50.852Z,27.97
2018-12-16T05:28:19.409Z,25.40
2018-12-16T05:30:48.052Z,25.50
2018-12-16T05:33:16.592Z,25.80
2018-12-16T05:35:44.998Z,27.80
2018-12-16T05:38:13.968Z,28.83
2018-12-16T05:40:43.126Z,30.03
2018-12-16T05:43:11.504Z,30.13
2018-12-16T05:45:40.425Z,31.57
2018-12-16T05:48:09.026Z,28.43
2018-12-16T05:50:37.455Z,28.57
2018-12-16T05:53:05.884Z,30.77
2018-12-16T05:55:34.698Z,26.83
2018-12-16T05:58:03.258Z,27.60
2018-12-16T06:00:32.465Z,28.53
2018-12-16T06:03:00.888Z,29.37
2018-12-16T06:05:29.500Z,28.57
2018-12-16T06:07:58.985Z,27.03
2018-12-16T06:10:27.552Z,28.70
2018-12-16T06:12:55.967Z,24.90
2018-12-16T06:15:24.661Z,28.40
2018-12-16T06:17:53.252Z,26.67
2018-12-16T06:20:21.795Z,26.07
2018-12-16T06:22:51.035Z,32.57
2018-12-16T06:25:19.598Z,30.27
2018-12-16T06:27:48.471Z,30.10
2018-12-16T06:30:19.148Z,29.23
2018-12-16T06:32:48.360Z,26.60
2018-12-16T06:35:16.752Z,29.13
2018-12-16T06:37:45.154Z,29.63
2018-12-16T06:40:13.655Z,29.20
2018-12-16T06:42:42.383Z,24.47
2018-12-16T06:45:11.628Z,25.90
2018-12-16T06:47:40.536Z,32.60
2018-12-16T06:50:09.684Z,28.27
2018-12-16T06:52:39.550Z,29.27
2018-12-16T06:55:08.671Z,26.17
2018-12-16T06:57:37.225Z,28.67
2018-12-16T07:00:07.350Z,30.37
2018-12-16T07:02:36.018Z,30.73
2018-12-16T07:05:04.799Z,31.57
2018-12-16T07:07:33.926Z,28.17
2018-12-16T07:10:02.544Z,30.13
2018-12-16T07:12:31.163Z,29.17
2018-12-16T07:14:59.632Z,26.93
2018-12-16T07:17:28.050Z,27.67
2018-12-16T07:19:56.547Z,28.33
2018-12-16T07:22:25.237Z,29.93
2018-12-16T07:24:53.893Z,25.33
2018-12-16T07:27:22.569Z,28.00
2018-12-16T07:29:51.272Z,26.53
2018-12-16T07:32:20.240Z,40.77
2018-12-16T07:34:48.942Z,31.67
2018-12-16T07:37:19.124Z,27.73
2018-12-16T07:39:48.210Z,27.07
2018-12-16T07:42:16.941Z,32.60
2018-12-16T07:44:45.796Z,27.17
2018-12-16T07:47:15.117Z,28.97
2018-12-16T07:49:43.860Z,28.60
2018-12-16T07:52:13.379Z,29.07
2018-12-16T07:54:42.311Z,31.17
2018-12-16T07:57:12.056Z,29.92
2018-12-16T07:59:41.104Z,29.10
2018-12-16T08:02:09.905Z,27.33
2018-12-16T08:04:38.627Z,28.60
2018-12-16T08:07:07.137Z,28.30
2018-12-16T08:09:35.786Z,73.33
2018-12-16T08:12:04.507Z,53.33
2018-12-16T08:14:32.905Z,32.27
2018-12-16T08:17:01.966Z,34.10
2018-12-16T08:19:31.096Z,30.23
2018-12-16T08:21:59.697Z,30.47
2018-12-16T08:24:28.858Z,29.63
2018-12-16T08:26:57.999Z,30.03
2018-12-16T08:29:26.425Z,32.67
2018-12-16T08:31:55.100Z,28.83
2018-12-16T08:34:23.550Z,66.03
2018-12-16T08:36:52.306Z,66.43
2018-12-16T08:39:21.344Z,35.93
2018-12-16T08:41:50.095Z,29.87
2018-12-16T08:44:19.252Z,26.80
2018-12-16T08:46:48.014Z,32.77
2018-12-16T08:49:16.816Z,34.10
2018-12-16T08:51:45.511Z,34.60
2018-12-16T08:54:14.421Z,33.23
2018-12-16T08:56:42.859Z,33.67
2018-12-16T08:59:11.665Z,28.77
2018-12-16T09:01:40.425Z,33.67
2018-12-16T09:04:09.165Z,34.40
2018-12-16T09:06:38.073Z,31.73
2018-12-16T09:12:40.826Z,53.20
2018-12-16T09:15:09.936Z,36.80
2018-12-16T09:17:38.765Z,32.70
2018-12-16T09:20:08.478Z,31.57
2018-12-16T09:22:37.981Z,32.00
2018-12-16T09:25:07.034Z,32.67
2018-12-16T09:27:36.340Z,33.87
2018-12-16T09:30:06.407Z,34.30
2018-12-16T09:32:35.555Z,31.13
2018-12-16T09:35:06.328Z,31.13
2018-12-16T09:37:34.932Z,29.40
2018-12-16T09:40:05.223Z,29.20
2018-12-16T09:42:33.898Z,30.53
2018-12-16T09:45:02.631Z,30.40
2018-12-16T09:47:31.424Z,31.10
2018-12-16T09:50:00.580Z,29.87
2018-12-16T09:52:29.890Z,28.47
2018-12-16T09:54:58.621Z,33.67
2018-12-16T09:57:27.029Z,27.90
2018-12-16T09:59:55.691Z,31.37
2018-12-16T10:02:24.331Z,34.93
2018-12-16T10:04:52.931Z,36.40
2018-12-16T10:07:21.504Z,34.13
2018-12-16T10:09:50.079Z,32.97
2018-12-16T10:12:19.412Z,34.87
2018-12-16T10:14:47.870Z,33.50
2018-12-16T10:17:16.395Z,33.23
2018-12-16T10:19:44.936Z,33.93
2018-12-16T10:22:13.372Z,31.27
2018-12-16T10:24:42.668Z,36.37
2018-12-16T10:27:11.185Z,35.83
2018-12-16T10:29:39.844Z,34.20
2018-12-16T10:32:08.422Z,34.77
2018-12-16T10:34:36.904Z,36.83
2018-12-16T10:37:05.840Z,34.33
2018-12-16T10:39:34.557Z,36.60
2018-12-16T10:42:03.154Z,35.73
2018-12-16T10:44:31.714Z,34.27
2018-12-16T10:47:00.229Z,29.77
2018-12-16T10:49:28.780Z,33.83
2018-12-16T10:51:57.901Z,34.83
2018-12-16T10:54:26.384Z,31.87
2018-12-16T10:56:55.459Z,29.83
2018-12-16T10:59:23.884Z,32.70
2018-12-16T11:01:52.511Z,29.40
2018-12-16T11:04:21.030Z,29.80
2018-12-16T11:06:49.470Z,31.67
2018-12-16T11:09:18.343Z,28.57
2018-12-16T11:11:46.765Z,28.70
2018-12-16T11:14:15.482Z,28.00
2018-12-16T11:16:43.895Z,29.07
2018-12-16T11:19:12.322Z,30.43
2018-12-16T11:21:40.816Z,31.10
2018-12-16T11:24:10.116Z,30.73
2018-12-16T11:26:39.091Z,31.30
2018-12-16T11:29:07.754Z,32.47
2018-12-16T11:31:37.035Z,30.67
2018-12-16T11:34:05.751Z,36.40
2018-12-16T11:36:34.513Z,34.50
2018-12-16T11:39:04.592Z,35.53
2018-12-16T11:41:33.107Z,42.50
2018-12-16T11:44:01.588Z,34.93
2018-12-16T11:46:30.432Z,38.10
2018-12-16T11:48:58.839Z,31.70
2018-12-16T11:51:27.614Z,30.97
2018-12-16T11:53:56.157Z,30.27
2018-12-16T11:56:24.775Z,31.93
2018-12-16T11:58:53.194Z,29.97
2018-12-16T12:01:21.722Z,30.13
2018-12-16T12:03:50.131Z,33.63
2018-12-16T12:06:18.726Z,31.20
2018-12-16T12:08:47.132Z,33.30
2018-12-16T12:11:16.034Z,69.07
2018-12-16T12:13:44.540Z,44.43
2018-12-16T12:16:13.246Z,36.63
2018-12-16T12:18:42.103Z,32.57
2018-12-16T12:21:11.250Z,34.80
2018-12-16T12:23:40.100Z,35.33
2018-12-16T12:26:08.550Z,31.43
2018-12-16T12:28:38.047Z,32.50
2018-12-16T12:31:07.391Z,33.23
2018-12-16T12:33:36.667Z,33.23
2018-12-16T12:36:05.773Z,32.00
2018-12-16T12:38:34.182Z,32.83
2018-12-16T12:41:02.736Z,38.07
2018-12-16T12:43:31.719Z,36.77
2018-12-16T12:46:00.133Z,36.33
2018-12-16T12:48:30.427Z,34.30
2018-12-16T12:50:59.392Z,33.40
2018-12-16T12:53:27.827Z,37.53
2018-12-16T12:55:56.313Z,66.50
2018-12-16T13:01:24.754Z,41.13
2018-12-16T13:03:54.146Z,37.77
2018-12-16T13:06:22.717Z,35.60
2018-12-16T13:08:51.146Z,37.90
2018-12-16T13:11:19.706Z,44.77
2018-12-16T13:13:48.329Z,34.13
2018-12-16T13:16:16.789Z,35.30
2018-12-16T13:18:45.190Z,35.17
2018-12-16T13:21:13.674Z,34.10
2018-12-16T13:23:42.245Z,30.87
2018-12-16T13:26:11.007Z,39.40
2018-12-16T13:28:39.500Z,35.87
2018-12-16T13:31:08.088Z,35.67
2018-12-16T13:33:36.785Z,34.13
2018-12-16T13:36:05.384Z,35.37
2018-12-16T13:38:34.427Z,32.07
2018-12-16T13:41:03.175Z,36.27
2018-12-16T13:43:31.701Z,35.83
2018-12-16T13:46:07.467Z,32.80
2018-12-16T13:48:36.018Z,38.67
2018-12-16T13:51:04.865Z,36.10
2018-12-16T13:53:33.588Z,41.10
2018-12-16T13:56:02.253Z,40.43
2018-12-16T13:58:31.740Z,41.43
2018-12-16T14:01:00.687Z,41.43
2018-12-16T14:03:29.313Z,41.33
2018-12-16T14:05:58.837Z,39.37
2018-12-16T14:08:27.365Z,42.03
2018-12-16T14:10:56.040Z,37.93
2018-12-16T14:13:24.499Z,66.13
2018-12-16T14:15:53.414Z,103.50
2018-12-16T14:18:22.444Z,46.80
2018-12-16T14:20:51.750Z,35.80
2018-12-16T14:23:20.276Z,34.70
2018-12-16T14:25:48.700Z,40.03
2018-12-16T14:28:17.871Z,34.23
2018-12-16T14:30:47.280Z,36.47
2018-12-16T14:33:16.195Z,35.27
2018-12-16T14:35:45.029Z,39.30
2018-12-16T14:38:13.912Z,35.33
2018-12-16T14:40:42.352Z,34.43
2018-12-16T14:43:11.864Z,34.37
2018-12-16T14:45:40.526Z,40.60
2018-12-16T14:48:09.209Z,40.50
2018-12-16T14:50:37.744Z,39.80
2018-12-16T14:53:06.784Z,37.43
2018-12-16T14:55:35.564Z,38.80
2018-12-16T14:58:04.270Z,40.97
2018-12-16T15:00:33.011Z,38.30
2018-12-16T15:03:01.524Z,39.27
2018-12-16T15:05:30.223Z,39.40
2018-12-16T15:07:58.836Z,37.87
2018-12-16T15:10:27.489Z,38.03
2018-12-16T15:12:56.207Z,35.87
2018-12-16T15:15:25.452Z,41.90
2018-12-16T15:17:54.264Z,40.30
2018-12-16T15:20:22.757Z,42.73
2018-12-16T15:22:51.251Z,40.13
2018-12-16T15:25:19.888Z,35.40
2018-12-16T15:27:48.873Z,39.57
2018-12-16T15:30:18.081Z,35.77
2018-12-16T15:32:46.679Z,38.33
2018-12-16T15:35:15.129Z,41.20
2018-12-16T15:37:44.135Z,38.53
2018-12-16T15:40:12.872Z,39.10
2018-12-16T15:42:41.667Z,37.17
2018-12-16T15:45:10.648Z,40.37
2018-12-16T15:47:39.203Z,34.83
2018-12-16T15:50:09.320Z,36.97
2018-12-16T15:52:37.739Z,35.70
2018-12-16T15:55:09.177Z,36.93
2018-12-16T15:57:38.049Z,40.47
2018-12-16T16:00:06.990Z,37.53
2018-12-16T16:02:35.904Z,39.03
2018-12-16T16:05:05.037Z,37.67
2018-12-16T16:07:33.447Z,40.80
2018-12-16T16:10:02.006Z,43.97
2018-12-16T16:12:30.882Z,83.27
2018-12-16T16:15:00.158Z,46.27
2018-12-16T16:17:28.568Z,45.30
2018-12-16T16:19:56.977Z,47.37
2018-12-16T16:22:25.828Z,42.80
2018-12-16T16:24:54.339Z,41.87
2018-12-16T16:27:22.755Z,41.87
2018-12-16T16:29:51.243Z,50.03
2018-12-16T16:32:19.675Z,53.30
2018-12-16T16:34:48.067Z,44.33
2018-12-16T16:37:16.482Z,41.27
2018-12-16T16:39:45.223Z,41.40
2018-12-16T16:42:13.638Z,44.73
2018-12-16T16:44:42.444Z,38.30
2018-12-16T16:47:10.933Z,66.60
2018-12-16T16:49:40.591Z,53.37
2018-12-16T16:52:09.392Z,43.43
2018-12-16T16:54:37.833Z,40.67
2018-12-16T16:57:07.116Z,39.27
2018-12-16T16:59:35.696Z,35.57
2018-12-16T17:02:04.477Z,37.43
2018-12-16T17:04:33.294Z,36.17
2018-12-16T17:07:01.982Z,34.90
2018-12-16T17:09:30.644Z,60.43
2018-12-16T17:11:59.127Z,62.03
2018-12-16T17:14:28.526Z,64.53
2018-12-16T17:16:56.932Z,45.17
2018-12-16T17:19:25.840Z,49.80
2018-12-16T17:21:55.024Z,42.93
2018-12-16T17:24:23.609Z,47.77
2018-12-16T17:26:52.493Z,47.07
2018-12-16T17:29:21.795Z,42.90
2018-12-16T17:31:50.372Z,41.00
2018-12-16T17:34:19.121Z,41.50
2018-12-16T17:36:47.720Z,40.30
2018-12-16T17:39:16.398Z,38.03
2018-12-16T17:41:45.473Z,37.60
2018-12-16T17:44:14.013Z,38.97
2018-12-16T17:46:43.910Z,50.03
2018-12-16T17:49:13.307Z,50.20
2018-12-16T17:51:41.923Z,43.90
2018-12-16T17:54:10.600Z,44.20
2018-12-16T17:56:39.000Z,40.90
2018-12-16T17:59:08.334Z,37.03
2018-12-16T18:01:37.129Z,43.83
2018-12-16T18:04:10.128Z,41.23
2018-12-16T18:06:39.055Z,41.57
2018-12-16T18:09:09.288Z,33.77
2018-12-16T18:11:39.748Z,31.00
2018-12-16T18:14:08.744Z,27.93
2018-12-16T18:16:38.102Z,35.60
2018-12-16T18:19:06.645Z,31.43
2018-12-16T18:21:35.319Z,28.90
2018-12-16T18:24:03.951Z,49.47
2018-12-16T18:26:32.475Z,37.57
2018-12-16T18:29:01.232Z,41.90
2018-12-16T18:31:30.076Z,29.80
2018-12-16T18:33:58.935Z,36.20
2018-12-16T18:36:27.468Z,31.53
2018-12-16T18:38:56.069Z,29.17
2018-12-16T18:41:24.453Z,31.87
2018-12-16T18:43:54.125Z,36.63
2018-12-16T18:46:22.637Z,34.73
2018-12-16T18:48:51.195Z,41.67
2018-12-16T18:51:19.794Z,37.87
2018-12-16T18:53:48.498Z,41.57
2018-12-16T18:56:17.024Z,46.33
2018-12-16T18:58:45.596Z,36.07
2018-12-16T19:01:14.418Z,36.43
2018-12-16T19:03:43.770Z,40.17
2018-12-16T19:06:12.223Z,32.80
2018-12-16T19:08:40.702Z,34.53
2018-12-16T19:11:09.130Z,39.73
2018-12-16T19:13:38.640Z,39.60
2018-12-16T19:16:07.188Z,43.20
2018-12-16T19:18:35.898Z,36.37
2018-12-16T19:21:04.612Z,35.87
2018-12-16T19:23:32.987Z,35.07
2018-12-16T19:26:02.216Z,35.77
2018-12-16T19:28:31.459Z,33.37
2018-12-16T19:31:00.215Z,32.53
2018-12-16T19:33:28.647Z,38.27
2018-12-16T19:35:57.630Z,30.57
2018-12-16T19:38:26.028Z,34.67
2018-12-16T19:40:54.504Z,38.47
2018-12-16T19:43:23.016Z,40.73
2018-12-16T19:45:51.568Z,42.03
2018-12-16T19:48:19.988Z,44.77
2018-12-16T19:50:48.541Z,53.60
2018-12-16T19:53:17.110Z,52.20
2018-12-16T19:55:46.043Z,60.00
2018-12-16T19:58:14.624Z,49.37
2018-12-16T20:00:43.548Z,44.97
2018-12-16T20:03:12.649Z,45.60
2018-12-16T20:05:46.601Z,47.67
2018-12-16T20:08:15.165Z,42.80
2018-12-16T20:10:43.601Z,44.07
2018-12-16T20:13:12.122Z,44.33
2018-12-16T20:15:40.519Z,42.37
2018-12-16T20:18:09.505Z,40.77
2018-12-16T20:20:38.751Z,40.33
2018-12-16T20:23:07.380Z,36.57
2018-12-16T20:25:36.048Z,41.27
2018-12-16T20:28:04.621Z,40.53
2018-12-16T20:30:33.583Z,52.87
2018-12-16T20:33:02.214Z,134.00
2018-12-16T20:35:31.063Z,44.73
2018-12-16T20:37:59.603Z,42.47
2018-12-16T20:40:29.243Z,44.90
2018-12-16T20:42:58.136Z,40.10
2018-12-16T20:45:26.693Z,41.43
2018-12-16T20:47:55.214Z,38.67
2018-12-16T20:50:24.340Z,33.67
2018-12-16T20:52:53.339Z,31.10
2018-12-16T20:55:21.871Z,33.13
2018-12-16T20:57:50.849Z,37.13
2018-12-16T21:00:19.317Z,31.60
2018-12-16T21:02:47.696Z,33.80
2018-12-16T21:05:16.311Z,32.47
2018-12-16T21:07:44.947Z,33.13
2018-12-16T21:10:13.504Z,32.93
2018-12-16T21:12:47.530Z,30.73
2018-12-16T21:15:21.298Z,31.80
2018-12-16T21:17:55.172Z,36.10
2018-12-16T21:20:25.212Z,34.07
2018-12-16T21:22:54.155Z,31.60
2018-12-16T21:25:22.705Z,35.53
2018-12-16T21:27:51.098Z,55.03
2018-12-16T21:30:19.648Z,33.33
2018-12-16T21:32:48.292Z,31.27
2018-12-16T21:35:16.764Z,30.17
2018-12-16T21:37:46.056Z,31.73
2018-12-16T21:40:14.568Z,29.00
2018-12-16T21:42:43.509Z,25.93
2018-12-16T21:45:12.236Z,31.27
2018-12-16T21:47:40.731Z,31.27
2018-12-16T21:50:10.037Z,29.53
2018-12-16T21:52:38.736Z,29.40
2018-12-16T21:55:07.256Z,28.73
2018-12-16T21:57:35.993Z,24.97
2018-12-16T22:00:07.434Z,26.37
2018-12-16T22:02:37.354Z,28.47
2018-12-16T22:05:07.865Z,29.23
2018-12-16T22:07:36.648Z,36.40
2018-12-16T22:10:06.468Z,22.80
2018-12-16T22:12:34.943Z,27.77
2018-12-16T22:15:03.809Z,22.73
2018-12-16T22:17:32.393Z,23.27
2018-12-16T22:20:00.984Z,26.80
2018-12-16T22:22:29.509Z,24.87
2018-12-16T22:25:00.362Z,24.13
2018-12-16T22:27:28.927Z,27.40
2018-12-16T22:29:58.188Z,22.17
2018-12-16T22:32:27.039Z,22.07
2018-12-16T22:34:56.000Z,24.10
2018-12-16T22:37:24.685Z,24.47
2018-12-16T22:39:53.374Z,21.87
2018-12-16T22:42:21.784Z,23.73
2018-12-16T22:44:50.554Z,23.50
2018-12-16T22:47:19.204Z,23.93
2018-12-16T22:49:47.645Z,25.30
2018-12-16T22:52:17.283Z,23.83
2018-12-16T22:54:45.938Z,27.17
2018-12-16T22:57:14.395Z,25.93
2018-12-16T22:59:42.900Z,25.63
2018-12-16T23:02:11.622Z,22.67
2018-12-16T23:04:40.071Z,23.60
2018-12-16T23:07:08.987Z,26.40
2018-12-16T23:09:37.603Z,26.57
2018-12-16T23:12:06.255Z,26.43
2018-12-16T23:14:34.906Z,28.57
2018-12-16T23:17:03.759Z,26.07
2018-12-16T23:19:32.349Z,28.90
2018-12-16T23:22:00.745Z,29.17
2018-12-16T23:24:30.122Z,26.87
2018-12-16T23:26:58.671Z,24.47
2018-12-16T23:29:27.259Z,25.17
2018-12-16T23:31:55.967Z,25.90
2018-12-16T23:34:25.208Z,27.90
2018-12-16T23:36:54.477Z,27.70
2018-12-16T23:39:23.026Z,27.43
2018-12-16T23:41:51.740Z,26.40
2018-12-16T23:44:20.237Z,27.93
2018-12-16T23:46:48.684Z,26.80
2018-12-16T23:49:17.084Z,25.50
2018-12-16T23:51:45.522Z,31.67
2018-12-16T23:54:14.203Z,25.80
2018-12-16T23:56:43.215Z,28.57
2018-12-16T23:59:11.772Z,35.10
